Time;durP1;ratioP1;P1;durP2;ratioP2;P2;SDS_P1;SDS_P2;PMS_P1;PMS_P2;Temp;Humidity;BMP_temperature;BMP_pressure;BME280_temperature;BME280_humidity;BME280_pressure;Samples;Min_cycle;Max_cycle;Signal;HPM_P1;HPM_P2
2023/08/03 04:35:48;;;;;;;0.85;0.57;;;;;;;;;;5790666;23;20226;-76
2023/08/03 04:38:16;;;;;;;3.92;0.80;;;;;;;;;;4997848;28;20219;-76
2023/08/03 04:40:43;;;;;;;0.40;0.40;;;;;;;;;;4998116;28;20217;-75
2023/08/03 04:43:10;;;;;;;1.02;0.57;;;;;;;;;;4997725;28;20233;-75
2023/08/03 04:45:37;;;;;;;2.83;0.70;;;;;;;;;;4997869;28;20249;-75
2023/08/03 04:48:05;;;;;;;1.80;0.52;;;;;;;;;;4998593;28;20210;-79
2023/08/03 04:50:32;;;;;;;1.48;0.70;;;;;;;;;;4998755;28;20214;-78
2023/08/03 04:52:59;;;;;;;0.82;0.68;;;;;;;;;;4998496;28;20202;-78
2023/08/03 04:55:27;;;;;;;1.65;0.80;;;;;;;;;;4999807;28;20233;-78
2023/08/03 04:57:54;;;;;;;0.68;0.50;;;;;;;;;;4999131;28;20214;-76
2023/08/03 05:00:21;;;;;;;2.88;0.55;;;;;;;;;;4998672;28;20206;-76
2023/08/03 05:02:49;;;;;;;2.10;0.82;;;;;;;;;;4998401;28;20229;-76
2023/08/03 05:05:16;;;;;;;1.35;0.50;;;;;;;;;;4999385;28;20281;-75
2023/08/03 05:07:43;;;;;;;1.33;0.68;;;;;;;;;;4998795;28;20682;-76
2023/08/03 05:10:10;;;;;;;1.48;0.68;;;;;;;;;;4998075;28;20209;-75
2023/08/03 05:12:41;;;;;;;3.30;0.57;;;;;;;;;;4997390;28;20198;-76
2023/08/03 05:15:09;;;;;;;2.13;0.80;;;;;;;;;;4997221;28;20229;-76
2023/08/03 05:17:36;;;;;;;0.75;0.50;;;;;;;;;;4997405;28;20573;-76
2023/08/03 05:20:03;;;;;;;1.25;0.70;;;;;;;;;;4996954;28;20700;-75
2023/08/03 05:22:30;;;;;;;1.70;0.60;;;;;;;;;;4997331;28;20234;-75
2023/08/03 05:24:57;;;;;;;2.60;0.65;;;;;;;;;;4996955;28;20237;-74
2023/08/03 05:27:24;;;;;;;0.63;0.50;;;;;;;;;;4996963;28;20214;-73
2023/08/03 05:29:53;;;;;;;1.45;0.50;;;;;;;;;;4996970;28;20206;-74
2023/08/03 05:32:20;;;;;;;0.57;0.50;;;;;;;;;;4996549;28;20666;-74
2023/08/03 05:34:47;;;;;;;0.85;0.55;;;;;;;;;;4995696;28;20209;-74
2023/08/03 05:37:16;;;;;;;1.10;0.32;;;;;;;;;;4996351;28;20206;-74
2023/08/03 05:39:43;;;;;;;0.82;0.40;;;;;;;;;;4996936;28;20260;-74
2023/08/03 05:42:13;;;;;;;0.90;0.50;;;;;;;;;;4996638;28;20225;-75
2023/08/03 05:44:40;;;;;;;0.52;0.40;;;;;;;;;;4996675;28;20202;-74
2023/08/03 05:47:10;;;;;;;0.47;0.32;;;;;;;;;;4996776;28;20206;-75
2023/08/03 05:49:37;;;;;;;1.02;0.60;;;;;;;;;;4996401;28;20657;-74
2023/08/03 05:52:06;;;;;;;0.40;0.40;;;;;;;;;;4996785;28;20202;-75
2023/08/03 05:54:33;;;;;;;0.65;0.43;;;;;;;;;;4996500;28;20565;-74
2023/08/03 05:57:00;;;;;;;0.50;0.35;;;;;;;;;;4996472;28;20244;-75
2023/08/03 05:59:28;;;;;;;0.30;0.30;;;;;;;;;;4996390;28;20685;-74
2023/08/03 06:01:55;;;;;;;0.50;0.43;;;;;;;;;;4996920;28;20253;-74
2023/08/03 06:04:24;;;;;;;1.23;0.30;;;;;;;;;;4997777;28;20665;-75
2023/08/03 06:06:51;;;;;;;0.50;0.35;;;;;;;;;;4996820;28;20218;-74
2023/08/03 06:09:19;;;;;;;0.30;0.30;;;;;;;;;;4996303;28;20206;-74
2023/08/03 06:11:47;;;;;;;0.40;0.40;;;;;;;;;;4996673;28;20202;-74
2023/08/03 06:14:17;;;;;;;0.32;0.32;;;;;;;;;;4996663;28;20229;-74
2023/08/03 06:16:44;;;;;;;0.80;0.40;;;;;;;;;;4996349;28;20253;-74
2023/08/03 06:19:11;;;;;;;1.83;0.35;;;;;;;;;;4996130;28;20234;-74
2023/08/03 06:21:40;;;;;;;0.32;0.32;;;;;;;;;;4995931;28;20208;-74
2023/08/03 06:24:07;;;;;;;0.40;0.20;;;;;;;;;;4995980;28;20214;-75
2023/08/03 06:26:36;;;;;;;1.25;0.40;;;;;;;;;;4995928;28;20236;-75
2023/08/03 06:29:05;;;;;;;1.05;0.40;;;;;;;;;;4996453;28;20740;-75
2023/08/03 06:31:35;;;;;;;0.70;0.43;;;;;;;;;;4995721;28;20627;-75
2023/08/03 06:34:03;;;;;;;2.38;0.60;;;;;;;;;;4995649;28;20668;-74
2023/08/03 06:36:30;;;;;;;0.30;0.30;;;;;;;;;;4995726;28;20226;-74
2023/08/03 06:38:59;;;;;;;0.60;0.32;;;;;;;;;;4995425;28;20213;-74
2023/08/03 06:41:26;;;;;;;0.30;0.30;;;;;;;;;;4995975;28;20202;-74
2023/08/03 06:43:54;;;;;;;0.82;0.30;;;;;;;;;;4995861;28;20229;-74
2023/08/03 06:46:21;;;;;;;0.77;0.30;;;;;;;;;;4995149;28;20226;-74
2023/08/03 06:48:48;;;;;;;1.08;0.40;;;;;;;;;;4995559;28;20203;-74
2023/08/03 06:51:16;;;;;;;0.32;0.28;;;;;;;;;;4995220;28;20543;-74
2023/08/03 06:53:43;;;;;;;0.45;0.40;;;;;;;;;;4996722;28;20194;-74
2023/08/03 06:56:11;;;;;;;0.98;0.40;;;;;;;;;;4996497;28;20272;-75
2023/08/03 06:58:39;;;;;;;0.40;0.40;;;;;;;;;;4996535;28;20205;-75
2023/08/03 07:01:06;;;;;;;0.88;0.45;;;;;;;;;;4996933;28;20202;-75
2023/08/03 07:03:33;;;;;;;1.00;0.40;;;;;;;;;;4996522;28;20217;-75
2023/08/03 07:06:01;;;;;;;0.93;0.30;;;;;;;;;;4997021;28;20245;-75
2023/08/03 07:08:28;;;;;;;0.73;0.40;;;;;;;;;;4997525;28;20289;-75
2023/08/03 07:10:55;;;;;;;0.65;0.50;;;;;;;;;;4997257;28;20224;-75
2023/08/03 07:13:24;;;;;;;0.40;0.40;;;;;;;;;;4997431;28;20198;-75
2023/08/03 07:15:51;;;;;;;0.40;0.40;;;;;;;;;;4996775;28;20222;-75
2023/08/03 07:18:18;;;;;;;0.52;0.47;;;;;;;;;;4995809;28;20642;-75
2023/08/03 07:20:45;;;;;;;1.73;0.43;;;;;;;;;;4995745;28;20685;-75
2023/08/03 07:23:13;;;;;;;0.52;0.40;;;;;;;;;;4995695;28;20245;-75
2023/08/03 07:25:40;;;;;;;0.55;0.20;;;;;;;;;;4995525;28;20697;-74
2023/08/03 07:28:07;;;;;;;1.95;0.40;;;;;;;;;;4994950;28;20253;-73
2023/08/03 07:30:37;;;;;;;0.77;0.40;;;;;;;;;;4994821;28;20288;-73
2023/08/03 07:33:04;;;;;;;0.45;0.40;;;;;;;;;;4994913;28;20209;-73
2023/08/03 07:35:31;;;;;;;1.02;0.38;;;;;;;;;;4994981;28;20272;-73
2023/08/03 07:37:58;;;;;;;0.70;0.30;;;;;;;;;;4994738;28;20217;-74
2023/08/03 07:40:25;;;;;;;0.50;0.47;;;;;;;;;;4994966;28;20202;-74
2023/08/03 07:42:52;;;;;;;0.38;0.38;;;;;;;;;;4994861;28;20222;-75
2023/08/03 07:45:19;;;;;;;0.38;0.30;;;;;;;;;;4994621;28;20234;-75
2023/08/03 07:47:48;;;;;;;0.40;0.30;;;;;;;;;;4994239;28;20658;-73
2023/08/03 07:50:15;;;;;;;0.40;0.40;;;;;;;;;;4994283;28;20206;-72
2023/08/03 07:52:42;;;;;;;0.43;0.40;;;;;;;;;;4994474;28;20289;-72
2023/08/03 07:55:10;;;;;;;0.77;0.40;;;;;;;;;;4994377;28;20232;-73
2023/08/03 07:57:38;;;;;;;0.30;0.30;;;;;;;;;;4994245;28;20206;-72
2023/08/03 08:00:05;;;;;;;0.98;0.50;;;;;;;;;;4997763;28;20265;-72
2023/08/03 08:02:32;;;;;;;1.38;0.45;;;;;;;;;;4999877;28;20233;-72
2023/08/03 08:05:01;;;;;;;0.50;0.40;;;;;;;;;;5000009;28;20229;-73
2023/08/03 08:07:28;;;;;;;1.02;0.40;;;;;;;;;;4995071;28;20296;-73
2023/08/03 08:09:55;;;;;;;0.57;0.40;;;;;;;;;;4994494;28;20191;-73
2023/08/03 08:12:22;;;;;;;0.45;0.38;;;;;;;;;;4994486;28;20198;-72
2023/08/03 08:14:49;;;;;;;1.00;0.40;;;;;;;;;;4995094;28;20206;-76
2023/08/03 08:17:16;;;;;;;0.85;0.45;;;;;;;;;;4994958;28;20206;-76
2023/08/03 08:19:43;;;;;;;0.20;0.20;;;;;;;;;;4995082;28;20282;-74
2023/08/03 08:22:12;;;;;;;0.35;0.30;;;;;;;;;;4994493;28;20715;-73
2023/08/03 08:24:39;;;;;;;0.70;0.38;;;;;;;;;;4994448;28;20673;-73
2023/08/03 08:27:06;;;;;;;0.45;0.30;;;;;;;;;;4994344;28;20214;-76
2023/08/03 08:29:34;;;;;;;0.52;0.40;;;;;;;;;;4994436;28;20198;-76
2023/08/03 08:32:01;;;;;;;1.15;0.30;;;;;;;;;;4995448;28;20202;-77
2023/08/03 08:34:28;;;;;;;0.90;0.30;;;;;;;;;;4996924;28;20198;-77
2023/08/03 08:36:55;;;;;;;0.30;0.30;;;;;;;;;;4996593;28;20739;-77
2023/08/03 08:39:24;;;;;;;0.40;0.38;;;;;;;;;;4996365;28;20260;-76
2023/08/03 08:41:51;;;;;;;0.43;0.43;;;;;;;;;;4996847;28;20224;-76
2023/08/03 08:44:18;;;;;;;1.45;0.40;;;;;;;;;;4995691;28;20273;-76
2023/08/03 08:46:45;;;;;;;0.43;0.20;;;;;;;;;;4993901;28;20230;-76
2023/08/03 08:49:12;;;;;;;0.20;0.20;;;;;;;;;;4993802;28;20710;-75
2023/08/03 08:51:41;;;;;;;1.50;0.52;;;;;;;;;;4995371;28;20666;-74
2023/08/03 08:54:09;;;;;;;1.92;0.35;;;;;;;;;;4997558;28;20198;-74
2023/08/03 08:56:38;;;;;;;0.60;0.40;;;;;;;;;;4998249;28;20253;-76
2023/08/03 08:59:05;;;;;;;0.30;0.30;;;;;;;;;;4997378;28;20229;-74
2023/08/03 09:01:51;;;;;;;0.28;0.25;;;;;;;;;;4995216;28;20253;-75
2023/08/03 09:04:31;;;;;;;0.75;0.47;;;;;;;;;;4994340;28;20628;-76
2023/08/03 09:06:58;;;;;;;0.40;0.40;;;;;;;;;;4993473;28;20233;-76
2023/08/03 09:09:29;;;;;;;0.30;0.30;;;;;;;;;;4994337;28;20298;-73
2023/08/03 09:11:57;;;;;;;0.70;0.60;;;;;;;;;;4997208;28;20665;-73
2023/08/03 09:14:24;;;;;;;0.57;0.30;;;;;;;;;;4997347;28;20202;-73
2023/08/03 09:16:51;;;;;;;0.50;0.50;;;;;;;;;;4997235;28;20237;-73
2023/08/03 09:19:37;;;;;;;1.35;0.20;;;;;;;;;;4997434;28;20202;-75
2023/08/03 09:22:04;;;;;;;1.45;0.50;;;;;;;;;;4997312;28;20202;-75
2023/08/03 09:24:31;;;;;;;0.60;0.47;;;;;;;;;;4997091;28;20217;-75
2023/08/03 09:27:00;;;;;;;0.70;0.35;;;;;;;;;;4996978;28;20313;-75
2023/08/03 09:29:31;;;;;;;0.40;0.40;;;;;;;;;;4996842;28;20661;-75
2023/08/03 09:32:02;;;;;;;1.88;0.40;;;;;;;;;;4997225;28;20245;-75
2023/08/03 09:34:39;;;;;;;0.55;0.43;;;;;;;;;;4996821;28;20202;-72
2023/08/03 09:37:07;;;;;;;0.52;0.40;;;;;;;;;;4997007;28;20210;-73
2023/08/03 09:39:34;;;;;;;0.80;0.30;;;;;;;;;;4996877;28;20241;-73
2023/08/03 09:42:04;;;;;;;0.82;0.32;;;;;;;;;;4996833;28;20234;-72
2023/08/03 09:44:33;;;;;;;2.30;0.30;;;;;;;;;;4996663;28;20225;-73
2023/08/03 09:47:01;;;;;;;1.75;0.50;;;;;;;;;;4996721;28;20312;-73
2023/08/03 09:49:28;;;;;;;0.47;0.47;;;;;;;;;;4996684;28;20213;-73
2023/08/03 09:51:57;;;;;;;1.27;0.60;;;;;;;;;;4996867;28;20213;-72
2023/08/03 09:54:26;;;;;;;1.27;0.38;;;;;;;;;;4996725;28;20198;-72
2023/08/03 09:56:57;;;;;;;0.30;0.30;;;;;;;;;;4996584;28;20219;-72
2023/08/03 09:59:26;;;;;;;0.57;0.38;;;;;;;;;;4996257;28;20729;-73
2023/08/03 10:01:58;;;;;;;1.17;0.43;;;;;;;;;;4996455;28;20230;-73
2023/08/03 10:04:25;;;;;;;1.42;0.50;;;;;;;;;;4996712;28;20313;-73
2023/08/03 10:06:56;;;;;;;0.30;0.30;;;;;;;;;;4997023;28;20292;-73
2023/08/03 10:09:26;;;;;;;0.38;0.32;;;;;;;;;;4997182;28;20194;-73
2023/08/03 10:11:55;;;;;;;0.75;0.40;;;;;;;;;;4996704;28;20206;-73
2023/08/03 10:14:24;;;;;;;0.40;0.40;;;;;;;;;;4997269;28;20209;-72
2023/08/03 10:16:52;;;;;;;0.40;0.40;;;;;;;;;;4996963;28;20222;-73
2023/08/03 10:19:20;;;;;;;0.45;0.35;;;;;;;;;;4996687;28;20212;-72
2023/08/03 10:21:47;;;;;;;0.95;0.20;;;;;;;;;;4995910;28;20202;-72
2023/08/03 10:24:15;;;;;;;0.52;0.40;;;;;;;;;;4996130;28;20221;-72
2023/08/03 10:26:43;;;;;;;0.35;0.30;;;;;;;;;;4996673;28;20226;-72
2023/08/03 10:29:10;;;;;;;0.77;0.30;;;;;;;;;;4996326;28;20684;-73
2023/08/03 10:34:31;;;;;;;1.58;0.30;;;;;;;;;;5092577;28;20980;-72
2023/08/03 10:36:58;;;;;;;0.43;0.43;;;;;;;;;;5091359;28;20215;-72
2023/08/03 10:39:44;;;;;;;0.30;0.30;;;;;;;;;;5091637;28;20233;-72
2023/08/03 10:42:21;;;;;;;0.63;0.43;;;;;;;;;;5091613;28;20206;-73
2023/08/03 10:44:48;;;;;;;0.47;0.47;;;;;;;;;;5091428;28;20191;-73
2023/08/03 10:47:22;;;;;;;0.77;0.50;;;;;;;;;;5091268;28;20202;-73
2023/08/03 10:49:54;;;;;;;0.38;0.38;;;;;;;;;;5088371;22;20231;-71
2023/08/03 10:52:23;;;;;;;0.20;0.20;;;;;;;;;;5050869;28;20655;-72
2023/08/03 10:54:50;;;;;;;0.30;0.30;;;;;;;;;;5051117;28;20204;-72
2023/08/03 10:57:18;;;;;;;0.63;0.30;;;;;;;;;;5051058;28;20200;-72
2023/08/03 10:59:46;;;;;;;0.30;0.30;;;;;;;;;;5050676;28;20318;-72
2023/08/03 11:02:14;;;;;;;0.30;0.20;;;;;;;;;;5050719;28;20562;-72
2023/08/03 11:04:41;;;;;;;0.30;0.30;;;;;;;;;;5050746;28;20200;-72
2023/08/03 11:07:10;;;;;;;2.20;0.35;;;;;;;;;;5050777;28;20197;-73
2023/08/03 11:09:37;;;;;;;0.47;0.30;;;;;;;;;;5050349;28;20216;-72
2023/08/03 11:12:06;;;;;;;1.10;0.50;;;;;;;;;;5050410;28;20646;-72
2023/08/03 11:14:33;;;;;;;0.38;0.38;;;;;;;;;;5050252;28;20224;-72
2023/08/03 11:17:00;;;;;;;0.40;0.28;;;;;;;;;;5050027;28;20200;-72
2023/08/03 11:19:32;;;;;;;1.15;0.50;;;;;;;;;;5049825;28;20725;-72
2023/08/03 11:21:59;;;;;;;0.60;0.30;;;;;;;;;;5050316;28;20284;-72
2023/08/03 11:24:31;;;;;;;0.88;0.30;;;;;;;;;;5050175;28;20250;-72
2023/08/03 11:26:58;;;;;;;0.40;0.40;;;;;;;;;;5049887;28;20644;-72
2023/08/03 11:29:26;;;;;;;0.47;0.47;;;;;;;;;;5049997;28;20223;-72
2023/08/03 11:31:53;;;;;;;0.30;0.30;;;;;;;;;;5049864;28;20200;-71
2023/08/03 11:34:22;;;;;;;0.30;0.30;;;;;;;;;;5049602;28;20590;-72
2023/08/03 11:36:50;;;;;;;0.22;0.22;;;;;;;;;;5050583;28;20300;-72
2023/08/03 11:39:19;;;;;;;0.40;0.30;;;;;;;;;;5050680;28;20316;-72
2023/08/03 11:41:48;;;;;;;1.30;0.40;;;;;;;;;;5050510;28;20210;-72
2023/08/03 11:44:15;;;;;;;0.38;0.38;;;;;;;;;;5045319;28;20201;-72
2023/08/03 11:46:42;;;;;;;1.27;0.30;;;;;;;;;;5036319;28;20239;-72
2023/08/03 11:49:13;;;;;;;0.75;0.43;;;;;;;;;;5035982;28;20236;-72
2023/08/03 11:51:41;;;;;;;0.20;0.20;;;;;;;;;;5036273;28;20189;-72
2023/08/03 11:54:09;;;;;;;0.32;0.32;;;;;;;;;;5036006;28;20252;-72
2023/08/03 11:56:37;;;;;;;0.40;0.40;;;;;;;;;;5036095;28;20204;-71
2023/08/03 11:59:08;;;;;;;1.63;0.47;;;;;;;;;;5036059;28;20216;-71
2023/08/03 12:01:43;;;;;;;0.45;0.43;;;;;;;;;;5036008;28;20193;-71
2023/08/03 12:04:10;;;;;;;0.30;0.30;;;;;;;;;;5035597;28;20632;-71
2023/08/03 12:06:45;;;;;;;0.50;0.50;;;;;;;;;;5035543;28;20668;-71
2023/08/03 12:09:12;;;;;;;0.40;0.30;;;;;;;;;;5035494;28;20584;-72
2023/08/03 12:11:39;;;;;;;0.40;0.40;;;;;;;;;;5035898;28;20208;-71
2023/08/03 12:14:07;;;;;;;1.27;0.30;;;;;;;;;;5035617;28;20654;-71
2023/08/03 12:16:37;;;;;;;0.95;0.30;;;;;;;;;;5035369;28;20569;-71
2023/08/03 12:19:08;;;;;;;0.50;0.50;;;;;;;;;;5035575;28;20619;-70
2023/08/03 12:21:35;;;;;;;0.50;0.50;;;;;;;;;;5035385;28;20355;-71
2023/08/03 12:24:02;;;;;;;0.75;0.30;;;;;;;;;;5035624;28;20231;-72
2023/08/03 12:26:29;;;;;;;0.35;0.30;;;;;;;;;;5035251;28;20664;-72
2023/08/03 12:28:56;;;;;;;0.30;0.30;;;;;;;;;;5035569;28;20225;-71
2023/08/03 12:31:25;;;;;;;1.23;0.50;;;;;;;;;;5035961;28;20204;-72
2023/08/03 12:33:52;;;;;;;1.20;0.43;;;;;;;;;;5035960;28;20718;-72
2023/08/03 12:36:19;;;;;;;0.52;0.52;;;;;;;;;;5036225;28;20254;-72
2023/08/03 12:38:46;;;;;;;0.35;0.35;;;;;;;;;;5036248;28;20225;-72
2023/08/03 12:41:14;;;;;;;1.13;0.47;;;;;;;;;;5037065;28;20205;-72
2023/08/03 12:43:41;;;;;;;0.70;0.47;;;;;;;;;;5035972;28;20197;-72
2023/08/03 12:46:08;;;;;;;1.20;0.55;;;;;;;;;;5035919;28;20201;-72
2023/08/03 12:48:36;;;;;;;0.32;0.32;;;;;;;;;;5035984;28;20247;-72
2023/08/03 12:51:04;;;;;;;1.88;0.50;;;;;;;;;;5036056;28;20185;-72
2023/08/03 12:53:31;;;;;;;0.40;0.40;;;;;;;;;;5036054;28;20300;-72
2023/08/03 12:55:58;;;;;;;1.88;0.43;;;;;;;;;;5034818;28;20346;-71
2023/08/03 12:58:25;;;;;;;0.88;0.50;;;;;;;;;;5036216;28;20200;-71
2023/08/03 13:00:55;;;;;;;0.85;0.40;;;;;;;;;;5036234;28;20560;-72
2023/08/03 13:03:22;;;;;;;0.57;0.30;;;;;;;;;;5035092;28;20606;-72
2023/08/03 13:05:51;;;;;;;0.43;0.32;;;;;;;;;;5034900;28;20679;-71
2023/08/03 13:08:18;;;;;;;1.35;0.52;;;;;;;;;;5034797;28;20205;-71
2023/08/03 13:10:45;;;;;;;0.43;0.40;;;;;;;;;;5034810;28;20224;-71
2023/08/03 13:13:12;;;;;;;0.50;0.43;;;;;;;;;;5034341;28;20593;-70
2023/08/03 13:15:39;;;;;;;0.68;0.40;;;;;;;;;;5034665;28;20200;-70
2023/08/03 13:18:06;;;;;;;1.50;0.57;;;;;;;;;;5034603;28;20201;-70
2023/08/03 13:20:33;;;;;;;0.70;0.40;;;;;;;;;;5034478;28;20227;-70
2023/08/03 13:23:02;;;;;;;0.45;0.45;;;;;;;;;;5034501;28;20204;-71
2023/08/03 13:25:29;;;;;;;0.90;0.30;;;;;;;;;;5034430;28;20201;-71
2023/08/03 13:27:56;;;;;;;0.63;0.30;;;;;;;;;;5034060;28;20750;-71
2023/08/03 13:30:23;;;;;;;1.00;0.40;;;;;;;;;;5033934;28;20647;-71
2023/08/03 13:32:50;;;;;;;0.50;0.50;;;;;;;;;;5034232;28;20200;-71
2023/08/03 13:35:17;;;;;;;0.30;0.30;;;;;;;;;;5034121;28;20221;-71
2023/08/03 13:37:44;;;;;;;0.50;0.35;;;;;;;;;;5034232;28;20223;-71
2023/08/03 13:40:14;;;;;;;0.55;0.30;;;;;;;;;;5033922;28;20712;-71
2023/08/03 13:42:42;;;;;;;0.85;0.30;;;;;;;;;;5034230;28;20185;-71
2023/08/03 13:45:09;;;;;;;0.40;0.40;;;;;;;;;;5034053;28;20235;-71
2023/08/03 13:47:36;;;;;;;0.38;0.38;;;;;;;;;;5033677;28;20212;-71
2023/08/03 13:50:04;;;;;;;0.60;0.45;;;;;;;;;;5033683;28;20224;-71
2023/08/03 13:52:31;;;;;;;0.25;0.25;;;;;;;;;;5034016;28;20319;-71
2023/08/03 13:55:00;;;;;;;0.50;0.50;;;;;;;;;;5033523;28;20252;-71
2023/08/03 13:57:28;;;;;;;1.17;0.40;;;;;;;;;;5033937;28;20211;-71
2023/08/03 13:59:55;;;;;;;3.10;0.30;;;;;;;;;;5033822;28;20224;-71
2023/08/03 14:02:22;;;;;;;0.43;0.30;;;;;;;;;;5033832;28;20208;-71
2023/08/03 14:04:50;;;;;;;0.20;0.20;;;;;;;;;;5033828;28;20205;-71
2023/08/03 14:07:17;;;;;;;1.08;0.32;;;;;;;;;;5033531;28;20208;-71
2023/08/03 14:09:46;;;;;;;0.35;0.30;;;;;;;;;;5033675;28;20275;-71
2023/08/03 14:12:14;;;;;;;1.65;0.30;;;;;;;;;;5033728;28;20201;-71
2023/08/03 14:14:43;;;;;;;0.30;0.30;;;;;;;;;;5033646;28;20217;-71
2023/08/03 14:17:10;;;;;;;0.95;0.30;;;;;;;;;;5033622;28;20205;-72
2023/08/03 14:19:37;;;;;;;1.15;0.50;;;;;;;;;;5033847;28;20283;-72
2023/08/03 14:22:05;;;;;;;0.38;0.38;;;;;;;;;;5033669;28;20229;-72
2023/08/03 14:24:32;;;;;;;0.20;0.20;;;;;;;;;;5033484;28;20201;-72
2023/08/03 14:26:59;;;;;;;0.30;0.30;;;;;;;;;;5033438;28;20207;-72
2023/08/03 14:29:26;;;;;;;0.40;0.40;;;;;;;;;;5034014;28;20248;-72
2023/08/03 14:31:55;;;;;;;0.38;0.38;;;;;;;;;;5033506;28;20207;-72
2023/08/03 14:34:22;;;;;;;0.40;0.40;;;;;;;;;;5033504;28;20213;-71
2023/08/03 14:36:49;;;;;;;0.40;0.40;;;;;;;;;;5033452;28;20204;-71
2023/08/03 14:39:16;;;;;;;0.20;0.20;;;;;;;;;;5033187;28;20734;-71
2023/08/03 14:41:43;;;;;;;0.20;0.20;;;;;;;;;;5033146;28;20216;-71
2023/08/03 14:44:10;;;;;;;0.20;0.20;;;;;;;;;;5033079;28;20197;-71
2023/08/03 14:46:38;;;;;;;0.65;0.22;;;;;;;;;;5033480;28;20205;-71
2023/08/03 14:49:06;;;;;;;0.98;0.38;;;;;;;;;;5033103;28;20575;-71
2023/08/03 14:51:34;;;;;;;0.35;0.35;;;;;;;;;;5033029;28;20566;-71
2023/08/03 14:54:01;;;;;;;0.63;0.45;;;;;;;;;;5033251;28;20259;-71
2023/08/03 14:56:28;;;;;;;0.20;0.20;;;;;;;;;;5033360;28;20571;-71
2023/08/03 14:58:55;;;;;;;1.85;0.40;;;;;;;;;;5033218;28;20221;-71
2023/08/03 15:01:22;;;;;;;0.45;0.30;;;;;;;;;;5033324;28;20205;-71
2023/08/03 15:03:49;;;;;;;0.30;0.30;;;;;;;;;;5033309;28;20181;-71
2023/08/03 15:06:17;;;;;;;0.38;0.30;;;;;;;;;;5032935;28;20586;-71
2023/08/03 15:08:44;;;;;;;0.68;0.40;;;;;;;;;;5032850;28;20699;-71
2023/08/03 15:11:11;;;;;;;0.47;0.40;;;;;;;;;;5033175;28;20567;-71
2023/08/03 15:13:39;;;;;;;2.75;0.30;;;;;;;;;;5033148;28;20227;-71
2023/08/03 15:16:09;;;;;;;3.20;0.40;;;;;;;;;;5033188;28;20668;-71
2023/08/03 15:18:36;;;;;;;0.50;0.50;;;;;;;;;;5033570;28;20227;-71
2023/08/03 15:21:11;;;;;;;0.68;0.40;;;;;;;;;;5036884;28;20201;-71
2023/08/03 15:23:40;;;;;;;0.25;0.25;;;;;;;;;;5036896;28;20555;-71
2023/08/03 15:26:07;;;;;;;0.25;0.25;;;;;;;;;;5036570;28;20599;-71
2023/08/03 15:28:34;;;;;;;0.65;0.30;;;;;;;;;;5036811;28;20228;-71
2023/08/03 15:31:01;;;;;;;1.95;0.20;;;;;;;;;;5036689;28;20201;-71
2023/08/03 15:33:28;;;;;;;0.90;0.40;;;;;;;;;;5036810;28;20205;-71
2023/08/03 15:35:55;;;;;;;0.75;0.40;;;;;;;;;;5036520;28;20221;-71
2023/08/03 15:38:22;;;;;;;0.55;0.40;;;;;;;;;;5036502;28;20205;-71
2023/08/03 15:40:51;;;;;;;0.82;0.25;;;;;;;;;;5036124;28;20205;-71
2023/08/03 15:43:18;;;;;;;0.25;0.25;;;;;;;;;;5036400;28;20205;-71
2023/08/03 15:45:45;;;;;;;2.33;0.40;;;;;;;;;;5036342;28;20284;-71
2023/08/03 15:48:13;;;;;;;0.30;0.30;;;;;;;;;;5036317;28;20208;-71
2023/08/03 15:50:44;;;;;;;2.35;0.30;;;;;;;;;;5036229;28;20255;-71
2023/08/03 15:53:11;;;;;;;0.30;0.30;;;;;;;;;;5036238;28;20185;-71
2023/08/03 15:55:38;;;;;;;0.20;0.20;;;;;;;;;;5036093;28;20319;-71
2023/08/03 15:58:07;;;;;;;0.35;0.22;;;;;;;;;;5036164;28;20228;-71
2023/08/03 16:00:35;;;;;;;0.30;0.30;;;;;;;;;;5036002;28;20228;-71
2023/08/03 16:03:04;;;;;;;0.25;0.20;;;;;;;;;;5035833;28;20205;-71
2023/08/03 16:05:34;;;;;;;0.32;0.30;;;;;;;;;;5036656;28;20197;-71
2023/08/03 16:08:01;;;;;;;0.35;0.30;;;;;;;;;;5035992;28;20185;-71
2023/08/03 16:10:29;;;;;;;0.47;0.30;;;;;;;;;;5035516;28;20220;-71
2023/08/03 16:12:56;;;;;;;0.20;0.20;;;;;;;;;;5035937;28;20197;-71
2023/08/03 16:15:24;;;;;;;0.75;0.22;;;;;;;;;;5035684;28;20220;-71
2023/08/03 16:17:51;;;;;;;0.80;0.30;;;;;;;;;;5035759;28;20232;-71
2023/08/03 16:20:18;;;;;;;0.40;0.28;;;;;;;;;;5035660;28;20217;-71
2023/08/03 16:22:46;;;;;;;0.30;0.30;;;;;;;;;;5036010;28;20212;-71
2023/08/03 16:25:13;;;;;;;0.80;0.30;;;;;;;;;;5036169;28;20197;-71
2023/08/03 16:27:40;;;;;;;0.30;0.30;;;;;;;;;;5036364;28;20208;-71
2023/08/03 16:30:07;;;;;;;0.75;0.40;;;;;;;;;;5036023;28;20228;-71
2023/08/03 16:32:36;;;;;;;0.43;0.30;;;;;;;;;;5036161;28;20201;-70
2023/08/03 16:35:04;;;;;;;0.43;0.28;;;;;;;;;;5035700;28;20220;-70
2023/08/03 16:37:31;;;;;;;0.20;0.20;;;;;;;;;;5035808;28;20197;-70
2023/08/03 16:39:59;;;;;;;0.20;0.20;;;;;;;;;;5035634;28;20231;-70
2023/08/03 16:42:26;;;;;;;0.43;0.40;;;;;;;;;;5035337;28;20227;-70
2023/08/03 16:44:53;;;;;;;1.77;0.30;;;;;;;;;;5035332;28;20201;-68
2023/08/03 16:47:20;;;;;;;1.42;0.40;;;;;;;;;;5035261;28;20203;-69
2023/08/03 16:49:49;;;;;;;0.30;0.30;;;;;;;;;;5034783;28;20229;-68
2023/08/03 16:52:16;;;;;;;2.10;0.38;;;;;;;;;;5035175;28;20204;-69
2023/08/03 16:54:44;;;;;;;0.20;0.20;;;;;;;;;;5035036;28;20227;-68
2023/08/03 16:57:12;;;;;;;0.52;0.30;;;;;;;;;;5034981;28;20201;-69
2023/08/03 16:59:39;;;;;;;0.50;0.40;;;;;;;;;;5034765;28;20715;-70
2023/08/03 17:02:06;;;;;;;0.30;0.30;;;;;;;;;;5034883;28;20287;-70
2023/08/03 17:04:34;;;;;;;0.35;0.35;;;;;;;;;;5034787;28;20207;-70
2023/08/03 17:07:02;;;;;;;0.30;0.30;;;;;;;;;;5034871;28;20200;-70
2023/08/03 17:09:29;;;;;;;0.30;0.30;;;;;;;;;;5034768;28;20217;-70
2023/08/03 17:11:56;;;;;;;0.20;0.20;;;;;;;;;;5034754;28;20197;-70
2023/08/03 17:14:25;;;;;;;0.47;0.40;;;;;;;;;;5034638;28;20207;-70
2023/08/03 17:16:52;;;;;;;0.90;0.47;;;;;;;;;;5034669;28;20288;-70
2023/08/03 17:19:19;;;;;;;0.60;0.40;;;;;;;;;;5034601;28;20235;-70
2023/08/03 17:21:46;;;;;;;0.20;0.20;;;;;;;;;;5034567;28;20200;-70
2023/08/03 17:24:15;;;;;;;0.30;0.30;;;;;;;;;;5034530;28;20200;-70
2023/08/03 17:26:42;;;;;;;0.50;0.50;;;;;;;;;;5034202;28;20680;-69
2023/08/03 17:29:11;;;;;;;0.47;0.40;;;;;;;;;;5034370;28;20224;-69
2023/08/03 17:31:38;;;;;;;0.47;0.47;;;;;;;;;;5034144;28;20610;-67
2023/08/03 17:34:06;;;;;;;1.15;0.50;;;;;;;;;;5034337;28;20208;-68
2023/08/03 17:36:33;;;;;;;0.40;0.40;;;;;;;;;;5034191;28;20225;-68
2023/08/03 17:39:00;;;;;;;0.65;0.50;;;;;;;;;;5034354;28;20224;-67
2023/08/03 17:41:28;;;;;;;1.05;0.28;;;;;;;;;;5034319;28;20205;-66
2023/08/03 17:43:55;;;;;;;1.35;0.20;;;;;;;;;;5033676;28;20197;-67
2023/08/03 17:46:22;;;;;;;0.30;0.30;;;;;;;;;;5034360;28;20197;-69
2023/08/03 17:48:49;;;;;;;1.70;0.50;;;;;;;;;;5033988;28;20228;-67
2023/08/03 17:51:17;;;;;;;0.95;0.50;;;;;;;;;;5034380;28;20204;-67
2023/08/03 17:53:44;;;;;;;0.75;0.38;;;;;;;;;;5034796;28;20205;-67
2023/08/03 17:56:12;;;;;;;1.15;0.40;;;;;;;;;;5034052;28;20274;-67
2023/08/03 17:58:41;;;;;;;0.70;0.40;;;;;;;;;;5034167;28;20224;-67
2023/08/03 18:01:15;;;;;;;0.55;0.50;;;;;;;;;;5064491;22;20216;-69
2023/08/03 18:03:43;;;;;;;0.35;0.35;;;;;;;;;;5054324;28;20203;-68
2023/08/03 18:06:13;;;;;;;0.47;0.45;;;;;;;;;;5054445;28;20207;-69
2023/08/03 18:08:40;;;;;;;0.57;0.30;;;;;;;;;;5054545;28;20212;-69
2023/08/03 18:11:07;;;;;;;0.70;0.60;;;;;;;;;;5054165;28;20216;-67
2023/08/03 18:13:34;;;;;;;0.20;0.20;;;;;;;;;;5054249;28;20204;-67
2023/08/03 18:16:04;;;;;;;0.50;0.32;;;;;;;;;;5054068;28;20223;-67
2023/08/03 18:18:31;;;;;;;0.50;0.40;;;;;;;;;;5054006;28;20641;-67
2023/08/03 18:20:58;;;;;;;0.30;0.30;;;;;;;;;;5054145;28;20242;-68
2023/08/03 18:23:25;;;;;;;0.40;0.40;;;;;;;;;;5053827;28;20203;-70
2023/08/03 18:25:57;;;;;;;3.75;0.50;;;;;;;;;;5054212;28;20212;-69
2023/08/03 18:28:24;;;;;;;0.35;0.35;;;;;;;;;;5054455;28;20191;-69
2023/08/03 18:30:59;;;;;;;0.85;0.40;;;;;;;;;;5053787;28;20220;-69
2023/08/03 18:33:27;;;;;;;0.68;0.47;;;;;;;;;;5054116;28;20199;-68
2023/08/03 18:35:59;;;;;;;0.40;0.40;;;;;;;;;;5054079;28;20251;-69
2023/08/03 18:38:26;;;;;;;0.22;0.22;;;;;;;;;;5054276;28;20192;-69
2023/08/03 18:40:53;;;;;;;0.60;0.30;;;;;;;;;;5053973;28;20231;-69
2023/08/03 18:43:20;;;;;;;0.40;0.40;;;;;;;;;;5054422;28;20212;-69
2023/08/03 18:45:56;;;;;;;0.30;0.30;;;;;;;;;;5054483;28;20200;-68
2023/08/03 18:48:24;;;;;;;0.30;0.30;;;;;;;;;;5054266;28;20262;-69
2023/08/03 18:50:57;;;;;;;0.40;0.40;;;;;;;;;;5053706;28;20644;-69
2023/08/03 18:53:24;;;;;;;0.30;0.30;;;;;;;;;;5053936;28;20216;-68
2023/08/03 18:55:51;;;;;;;0.98;0.40;;;;;;;;;;5057313;28;20221;-68
2023/08/03 18:58:18;;;;;;;0.40;0.32;;;;;;;;;;5058262;28;20196;-68
2023/08/03 19:00:46;;;;;;;0.22;0.22;;;;;;;;;;5057673;28;20239;-67
2023/08/03 19:03:13;;;;;;;0.30;0.30;;;;;;;;;;5058671;28;20191;-68
2023/08/03 19:05:40;;;;;;;0.22;0.22;;;;;;;;;;5057906;28;20192;-68
2023/08/03 19:08:09;;;;;;;0.30;0.30;;;;;;;;;;5058034;28;20211;-69
2023/08/03 19:10:36;;;;;;;0.52;0.35;;;;;;;;;;5057753;28;20237;-69
2023/08/03 19:13:03;;;;;;;0.57;0.40;;;;;;;;;;5057611;28;20205;-70
2023/08/03 19:15:31;;;;;;;0.40;0.40;;;;;;;;;;5057211;28;20235;-68
2023/08/03 19:17:58;;;;;;;0.20;0.20;;;;;;;;;;5057491;28;20197;-68
2023/08/03 19:20:25;;;;;;;0.20;0.20;;;;;;;;;;5057202;28;20224;-69
2023/08/03 19:22:53;;;;;;;0.20;0.20;;;;;;;;;;5056763;28;20200;-69
2023/08/03 19:25:23;;;;;;;0.20;0.20;;;;;;;;;;5056729;28;20211;-69